createdAt,value
2023-04-10T00:00:49.947Z,27.02
2023-04-10T00:04:50.568Z,27.04
2023-04-10T00:08:50.183Z,27.01
2023-04-10T00:12:50.425Z,26.99
2023-04-10T00:16:50.556Z,26.95
2023-04-10T00:20:50.971Z,26.96
2023-04-10T00:24:50.956Z,26.94
2023-04-10T00:28:51.117Z,26.96
2023-04-10T00:32:51.481Z,26.91
2023-04-10T00:36:51.563Z,26.94
2023-04-10T00:40:51.950Z,26.85
2023-04-10T00:44:51.945Z,26.87
2023-04-10T00:48:52.188Z,26.81
2023-04-10T00:52:52.349Z,26.84
2023-04-10T00:56:52.978Z,26.79
2023-04-10T01:00:53.023Z,26.81
2023-04-10T01:04:52.929Z,26.74
2023-04-10T01:08:53.444Z,26.80
2023-04-10T01:12:53.354Z,26.76
2023-04-10T01:16:54.045Z,26.72
2023-04-10T01:20:53.964Z,26.71
2023-04-10T01:24:54.028Z,26.62
2023-04-10T01:28:54.478Z,26.65
2023-04-10T01:32:54.461Z,26.66
2023-04-10T01:36:54.977Z,26.64
2023-04-10T01:40:54.981Z,26.60
2023-04-10T01:44:55.466Z,26.65
2023-04-10T01:48:55.462Z,26.58
2023-04-10T01:52:55.462Z,26.55
2023-04-10T01:56:55.993Z,26.57
2023-04-10T02:00:56.025Z,26.54
2023-04-10T02:04:56.586Z,26.49
2023-04-10T02:08:56.181Z,26.49
2023-04-10T02:12:56.373Z,26.52
2023-04-10T02:16:56.979Z,26.48
2023-04-10T02:20:56.969Z,26.46
2023-04-10T02:24:57.478Z,26.43
2023-04-10T02:28:57.195Z,26.45
2023-04-10T02:32:57.536Z,26.45
2023-04-10T02:36:58.521Z,26.40
2023-04-10T02:40:58.001Z,26.38
2023-04-10T02:44:58.001Z,26.35
2023-04-10T02:48:58.137Z,26.36
2023-04-10T02:52:58.496Z,26.33
2023-04-10T02:56:58.499Z,26.31
2023-04-10T03:00:58.987Z,26.28
2023-04-10T03:04:59.168Z,26.33
2023-04-10T03:08:59.040Z,26.28
2023-04-10T03:12:59.531Z,26.24
2023-04-10T03:16:59.528Z,26.28
2023-04-10T03:21:00.056Z,26.22
2023-04-10T03:25:00.000Z,26.23
2023-04-10T03:29:00.109Z,26.22
2023-04-10T03:33:00.510Z,26.17
2023-04-10T03:37:00.507Z,26.15
2023-04-10T03:41:01.020Z,26.19
2023-04-10T03:45:00.882Z,26.17
2023-04-10T03:49:01.060Z,26.22
2023-04-10T03:53:01.244Z,26.15
2023-04-10T03:57:01.582Z,26.13
2023-04-10T04:01:02.001Z,26.16
2023-04-10T04:05:01.884Z,26.15
2023-04-10T04:09:02.028Z,26.16
2023-04-10T04:13:02.252Z,26.12
2023-04-10T04:17:02.597Z,26.15
2023-04-10T04:21:03.016Z,26.13
2023-04-10T04:25:02.745Z,26.09
2023-04-10T04:29:03.033Z,26.09
2023-04-10T04:33:03.566Z,26.08
2023-04-10T04:37:03.549Z,26.07
2023-04-10T04:41:03.546Z,26.14
2023-04-10T04:45:03.673Z,26.13
2023-04-10T04:49:04.031Z,26.14
2023-04-10T04:53:04.919Z,26.09
2023-04-10T04:57:04.545Z,26.08
2023-04-10T05:01:04.599Z,26.11
2023-04-10T05:05:04.432Z,26.11
2023-04-10T05:09:04.559Z,26.08
2023-04-10T05:13:04.348Z,26.06
2023-04-10T05:17:04.528Z,26.08
2023-04-10T05:21:04.563Z,26.07
2023-04-10T05:25:04.229Z,26.04
2023-04-10T05:29:04.196Z,26.07
2023-04-10T05:33:04.529Z,26.09
2023-04-10T05:37:04.569Z,26.05
2023-04-10T05:41:04.546Z,26.09
2023-04-10T05:45:04.146Z,26.04
2023-04-10T05:49:04.333Z,26.04
2023-04-10T05:53:04.572Z,26.09
2023-04-10T05:57:05.054Z,26.08
2023-04-10T06:01:04.929Z,26.03
2023-04-10T06:05:05.189Z,26.01
2023-04-10T06:09:05.524Z,26.03
2023-04-10T06:13:06.040Z,26.07
2023-04-10T06:17:06.032Z,26.01
2023-04-10T06:21:05.992Z,26.07
2023-04-10T06:25:06.537Z,26.03
2023-04-10T06:29:06.349Z,26.06
2023-04-10T06:33:07.067Z,26.07
2023-04-10T06:37:07.067Z,26.03
2023-04-10T06:41:06.955Z,26.00
2023-04-10T06:45:07.551Z,26.06
2023-04-10T06:49:07.371Z,26.07
2023-04-10T06:53:07.559Z,26.12
2023-04-10T06:57:07.777Z,26.11
2023-04-10T07:01:07.972Z,26.11
2023-04-10T07:05:08.583Z,26.07
2023-04-10T07:09:08.372Z,26.12
2023-04-10T07:13:08.567Z,26.07
2023-04-10T07:17:09.080Z,26.07
2023-04-10T07:21:08.915Z,26.12
2023-04-10T07:25:09.605Z,26.11
2023-04-10T07:29:09.311Z,26.12
2023-04-10T07:33:09.805Z,26.11
2023-04-10T07:37:09.588Z,26.19
2023-04-10T07:41:09.769Z,26.15
2023-04-10T07:45:10.092Z,26.26
2023-04-10T07:49:10.567Z,26.19
2023-04-10T07:53:10.587Z,26.23
2023-04-10T07:57:10.687Z,26.23
2023-04-10T08:01:10.637Z,26.28
2023-04-10T08:05:11.183Z,26.30
2023-04-10T08:09:10.976Z,26.27
2023-04-10T08:13:11.578Z,26.24
2023-04-10T08:17:11.320Z,26.29
2023-04-10T08:21:11.592Z,26.34
2023-04-10T08:25:11.615Z,26.30
2023-04-10T08:29:11.709Z,26.25
2023-04-10T08:33:12.088Z,26.27
2023-04-10T08:37:12.040Z,26.31
2023-04-10T08:41:12.625Z,26.26
2023-04-10T08:45:12.612Z,26.27
2023-04-10T08:49:12.644Z,26.23
2023-04-10T08:53:12.560Z,26.28
2023-04-10T08:57:12.689Z,26.27
2023-04-10T09:01:13.105Z,26.22
2023-04-10T09:05:12.965Z,26.17
2023-04-10T09:09:13.593Z,26.15
2023-04-10T09:13:13.588Z,26.21
2023-04-10T09:17:13.390Z,26.14
2023-04-10T09:21:13.599Z,26.17
2023-04-10T09:25:13.669Z,26.08
2023-04-10T09:29:14.125Z,26.11
2023-04-10T09:33:14.097Z,26.07
2023-04-10T09:37:14.075Z,26.05
2023-04-10T09:41:14.631Z,26.09
2023-04-10T09:45:14.630Z,26.07
2023-04-10T09:49:14.615Z,26.12
2023-04-10T09:53:14.565Z,26.11
2023-04-10T09:57:15.124Z,26.10
2023-04-10T10:01:15.128Z,26.20
2023-04-10T10:05:14.977Z,26.13
2023-04-10T10:09:15.132Z,26.17
2023-04-10T10:13:15.194Z,26.23
2023-04-10T10:17:15.641Z,26.23
2023-04-10T10:21:15.636Z,26.23
2023-04-10T10:25:15.622Z,26.21
2023-04-10T10:29:16.129Z,26.23
2023-04-10T10:33:15.737Z,26.17
2023-04-10T10:37:16.152Z,26.27
2023-04-10T10:41:16.176Z,26.30
2023-04-10T10:45:16.146Z,26.16
2023-04-10T10:49:16.644Z,26.24
2023-04-10T10:53:16.385Z,26.27
2023-04-10T10:57:16.666Z,26.19
2023-04-10T11:01:16.715Z,26.19
2023-04-10T11:05:16.647Z,26.23
2023-04-10T11:09:17.156Z,26.14
2023-04-10T11:13:16.913Z,26.16
2023-04-10T11:17:17.191Z,26.16
2023-04-10T11:21:17.148Z,26.12
2023-04-10T11:25:17.164Z,26.02
2023-04-10T11:29:17.249Z,26.12
2023-04-10T11:33:17.323Z,26.12
2023-04-10T11:37:17.655Z,26.14
2023-04-10T11:41:17.644Z,26.15
2023-04-10T11:45:17.654Z,26.13
2023-04-10T11:49:17.663Z,26.17
2023-04-10T11:53:18.154Z,26.20
2023-04-10T11:57:17.864Z,26.25
2023-04-10T12:01:18.169Z,26.15
2023-04-10T12:05:18.190Z,26.12
2023-04-10T12:09:18.123Z,26.23
2023-04-10T12:13:18.670Z,26.23
2023-04-10T12:17:18.279Z,26.17
2023-04-10T12:21:18.650Z,26.22
2023-04-10T12:25:18.678Z,26.16
2023-04-10T12:29:18.521Z,26.16
2023-04-10T12:33:18.664Z,26.22
2023-04-10T12:37:18.684Z,26.12
2023-04-10T12:41:19.189Z,26.16
2023-04-10T12:45:19.189Z,26.05
2023-04-10T12:49:18.903Z,26.15
2023-04-10T12:53:19.171Z,26.07
2023-04-10T12:57:19.192Z,25.98
2023-04-10T13:05:38.514Z,26.07
2023-04-10T13:09:38.234Z,26.00
2023-04-10T13:13:38.469Z,25.82
2023-04-10T13:17:38.543Z,25.90
2023-04-10T13:21:38.480Z,25.82
2023-04-10T13:25:38.059Z,25.90
2023-04-10T13:29:39.349Z,25.82
2023-04-10T13:33:38.443Z,25.85
2023-04-10T13:37:38.026Z,25.72
2023-04-10T13:41:37.977Z,25.66
2023-04-10T13:45:37.975Z,25.62
2023-04-10T13:49:38.002Z,25.65
2023-04-10T13:53:38.493Z,25.50
2023-04-10T13:57:38.500Z,25.51
2023-04-10T14:01:38.515Z,25.54
2023-04-10T14:05:38.211Z,25.49
2023-04-10T14:09:38.478Z,25.53
2023-04-10T14:13:38.484Z,25.49
2023-04-10T14:17:38.504Z,25.36
2023-04-10T14:21:38.487Z,25.35
2023-04-10T14:25:38.474Z,25.44
2023-04-10T14:29:44.975Z,25.43
2023-04-10T14:33:40.000Z,25.33
2023-04-10T14:37:39.005Z,25.32
2023-04-10T14:41:38.989Z,25.23
2023-04-10T14:45:38.714Z,25.32
2023-04-10T14:49:39.006Z,25.24
2023-04-10T14:53:38.995Z,25.24
2023-04-10T14:57:39.522Z,25.23
2023-04-10T15:01:39.078Z,25.24
2023-04-10T15:05:38.968Z,25.23
2023-04-10T15:09:39.481Z,25.05
2023-04-10T15:13:39.539Z,25.12
2023-04-10T15:17:39.529Z,25.08
2023-04-10T15:21:39.201Z,25.11
2023-04-10T15:25:39.273Z,24.98
2023-04-10T15:29:39.498Z,25.05
2023-04-10T15:33:39.494Z,24.90
2023-04-10T15:37:39.532Z,24.97
2023-04-10T15:41:39.558Z,24.99
2023-04-10T15:45:39.602Z,24.91
2023-04-10T15:49:40.000Z,24.89
2023-04-10T15:53:40.036Z,24.86
2023-04-10T15:57:40.036Z,25.00
2023-04-10T16:01:39.926Z,24.86
2023-04-10T16:05:39.882Z,24.60
2023-04-10T16:09:40.021Z,24.78
2023-04-10T16:13:42.859Z,24.85
2023-04-10T16:17:40.056Z,24.85
2023-04-10T16:21:39.958Z,24.89
2023-04-10T16:25:39.903Z,24.72
2023-04-10T16:29:40.050Z,24.74
2023-04-10T16:33:39.877Z,24.82
2023-04-10T16:37:40.060Z,24.78
2023-04-10T16:41:39.815Z,24.56
2023-04-10T16:45:39.737Z,24.64
2023-04-10T16:49:40.056Z,24.56
2023-04-10T16:53:40.039Z,24.67
2023-04-10T16:57:40.023Z,24.51
2023-04-10T17:01:39.966Z,24.64
2023-04-10T17:05:40.054Z,24.66
2023-04-10T17:09:40.040Z,24.66
2023-04-10T17:13:40.058Z,24.83
2023-04-10T17:17:40.573Z,24.86
2023-04-10T17:21:40.117Z,24.82
2023-04-10T17:25:40.522Z,24.86
2023-04-10T17:29:41.059Z,25.04
2023-04-10T17:33:40.546Z,25.04
2023-04-10T17:37:40.578Z,25.04
2023-04-10T17:41:40.403Z,25.00
2023-04-10T17:45:40.434Z,25.16
2023-04-10T17:49:40.575Z,25.12
2023-04-10T17:53:41.065Z,25.01
2023-04-10T17:57:40.635Z,25.21
2023-04-10T18:01:41.198Z,25.14
2023-04-10T18:05:40.773Z,25.13
2023-04-10T18:09:41.150Z,25.20
2023-04-10T18:13:41.065Z,25.23
2023-04-10T18:17:41.010Z,25.21
2023-04-10T18:21:41.101Z,25.40
2023-04-10T18:25:41.548Z,25.41
2023-04-10T18:29:41.544Z,25.40
2023-04-10T18:33:42.688Z,25.36
2023-04-10T18:37:41.351Z,25.46
2023-04-10T18:41:41.567Z,25.36
2023-04-10T18:45:41.569Z,25.50
2023-04-10T18:49:41.554Z,25.44
2023-04-10T18:53:42.064Z,25.54
2023-04-10T18:57:41.812Z,25.36
2023-04-10T19:01:41.941Z,25.65
2023-04-10T19:05:42.065Z,25.51
2023-04-10T19:09:42.060Z,25.28
2023-04-10T19:13:42.559Z,25.31
2023-04-10T19:17:42.264Z,25.54
2023-04-10T19:21:42.603Z,25.28
2023-04-10T19:25:42.587Z,25.27
2023-04-10T19:29:42.508Z,25.32
2023-04-10T19:33:43.109Z,25.33
2023-04-10T19:37:42.736Z,25.27
2023-04-10T19:41:43.097Z,25.28
2023-04-10T19:45:43.097Z,25.33
2023-04-10T19:49:43.094Z,25.39
2023-04-10T19:53:43.183Z,25.31
2023-04-10T19:57:43.588Z,25.41
2023-04-10T20:01:43.694Z,25.41
2023-04-10T20:05:43.560Z,25.44
2023-04-10T20:09:44.094Z,25.39
2023-04-10T20:13:43.729Z,25.47
2023-04-10T20:17:44.221Z,25.36
2023-04-10T20:21:44.096Z,25.32
2023-04-10T20:25:44.082Z,25.34
2023-04-10T20:29:44.144Z,25.36
2023-04-10T20:33:44.246Z,25.37
2023-04-10T20:37:44.564Z,25.36
2023-04-10T20:41:44.596Z,25.37
2023-04-10T20:45:44.598Z,25.33
2023-04-10T20:49:45.098Z,25.37
2023-04-10T20:53:44.689Z,25.44
2023-04-10T20:57:44.774Z,25.51
2023-04-10T21:01:45.061Z,25.39
2023-04-10T21:05:45.106Z,25.40
2023-04-10T21:09:45.618Z,25.39
2023-04-10T21:13:45.187Z,25.43
2023-04-10T21:17:45.658Z,25.48
2023-04-10T21:21:45.618Z,25.44
2023-04-10T21:25:45.618Z,25.48
2023-04-10T21:29:45.652Z,25.51
2023-04-10T21:33:45.697Z,25.48
2023-04-10T21:37:45.839Z,25.56
2023-04-10T21:41:46.139Z,25.59
2023-04-10T21:45:46.139Z,25.55
2023-04-10T21:49:46.081Z,25.55
2023-04-10T21:53:46.633Z,25.62
2023-04-10T21:57:46.652Z,25.58
2023-04-10T22:01:46.704Z,25.63
2023-04-10T22:05:46.663Z,25.65
2023-04-10T22:09:46.632Z,25.60
2023-04-10T22:13:47.134Z,25.64
2023-04-10T22:17:47.170Z,25.63
2023-04-10T22:21:47.137Z,25.64
2023-04-10T22:25:47.137Z,25.69
2023-04-10T22:29:56.183Z,25.71
2023-04-10T22:33:48.141Z,25.67
2023-04-10T22:37:47.126Z,25.79
2023-04-10T22:41:47.168Z,25.78
2023-04-10T22:45:47.196Z,25.81
2023-04-10T22:49:47.221Z,25.81
2023-04-10T22:54:41.762Z,25.79
2023-04-10T22:58:41.963Z,25.82
2023-04-10T23:02:42.101Z,25.86
2023-04-10T23:06:41.986Z,25.83
2023-04-10T23:10:41.592Z,25.85
2023-04-10T23:14:41.996Z,25.85
2023-04-10T23:18:41.993Z,25.86
2023-04-10T23:22:41.984Z,25.89
2023-04-10T23:26:41.496Z,25.91
2023-04-10T23:30:41.584Z,25.92
2023-04-10T23:34:41.392Z,25.97
2023-04-10T23:38:41.477Z,26.01
2023-04-10T23:42:41.491Z,25.99
2023-04-10T23:46:41.632Z,26.01
2023-04-10T23:50:41.258Z,25.99
2023-04-10T23:54:41.501Z,26.05
2023-04-10T23:58:41.300Z,26.05
